Time;durP1;ratioP1;P1;durP2;ratioP2;P2;SDS_P1;SDS_P2;PMS_P1;PMS_P2;Temp;Humidity;BMP_temperature;BMP_pressure;BME280_temperature;BME280_humidity;BME280_pressure;Samples;Min_cycle;Max_cycle;Signal;HPM_P1;HPM_P2
2023/08/26 00:00:49;;;;;;;5.00;4.30;;;;;;;;;;5024132;28;20435;-81
2023/08/26 00:03:18;;;;;;;6.67;4.63;;;;;;;;;;5025616;28;20514;-81
2023/08/26 00:05:48;;;;;;;4.47;4.07;;;;;;;;;;5026384;28;20497;-81
2023/08/26 00:08:17;;;;;;;5.50;4.30;;;;;;;;;;5025564;28;20447;-80
2023/08/26 00:10:45;;;;;;;5.77;4.73;;;;;;;;;;5026189;28;20447;-81
2023/08/26 00:13:13;;;;;;;6.67;5.83;;;;;;;;;;5024268;28;20534;-80
2023/08/26 00:15:41;;;;;;;5.57;4.73;;;;;;;;;;5023242;28;20451;-79
2023/08/26 00:18:11;;;;;;;5.97;4.80;;;;;;;;;;5022286;28;20502;-80
2023/08/26 00:20:41;;;;;;;7.60;4.93;;;;;;;;;;5022325;28;20469;-81
2023/08/26 00:23:09;;;;;;;5.53;4.23;;;;;;;;;;5021244;28;20519;-80
2023/08/26 00:25:37;;;;;;;8.33;5.03;;;;;;;;;;5022873;28;20545;-80
2023/08/26 00:28:05;;;;;;;8.93;5.37;;;;;;;;;;5022616;28;20462;-80
2023/08/26 00:30:32;;;;;;;5.13;4.63;;;;;;;;;;5025077;28;20451;-79
2023/08/26 00:33:00;;;;;;;6.13;4.97;;;;;;;;;;5024536;28;20519;-83
2023/08/26 00:35:28;;;;;;;6.07;4.37;;;;;;;;;;5026322;28;20439;-81
2023/08/26 00:37:56;;;;;;;8.07;4.83;;;;;;;;;;5027852;28;20455;-82
2023/08/26 00:40:27;;;;;;;5.90;5.30;;;;;;;;;;5028038;28;20431;-81
2023/08/26 00:42:55;;;;;;;6.00;4.60;;;;;;;;;;5027676;28;20443;-81
2023/08/26 00:45:26;;;;;;;7.37;4.80;;;;;;;;;;5030515;28;20455;-80
2023/08/26 00:47:53;;;;;;;6.07;4.47;;;;;;;;;;5027935;28;20463;-81
2023/08/26 00:50:21;;;;;;;5.23;4.73;;;;;;;;;;5027307;28;20447;-79
2023/08/26 00:52:49;;;;;;;6.70;4.60;;;;;;;;;;5024174;28;20431;-81
2023/08/26 00:55:18;;;;;;;7.43;5.30;;;;;;;;;;5024667;28;20491;-80
2023/08/26 00:57:46;;;;;;;6.33;4.50;;;;;;;;;;5026848;28;20769;-80
2023/08/26 01:00:17;;;;;;;10.20;5.03;;;;;;;;;;5027984;28;20790;-81
2023/08/26 01:02:44;;;;;;;5.30;4.50;;;;;;;;;;5023707;28;20451;-79
2023/08/26 01:05:12;;;;;;;7.40;4.70;;;;;;;;;;5022272;28;20898;-81
2023/08/26 01:07:40;;;;;;;7.30;5.07;;;;;;;;;;5024978;28;20620;-80
2023/08/26 01:10:09;;;;;;;6.73;4.87;;;;;;;;;;5025248;28;20645;-80
2023/08/26 01:12:42;;;;;;;6.20;5.10;;;;;;;;;;5025917;28;20457;-79
2023/08/26 01:15:11;;;;;;;8.23;5.30;;;;;;;;;;5028089;28;20495;-78
2023/08/26 01:17:39;;;;;;;9.70;6.00;;;;;;;;;;5028662;28;20454;-80
2023/08/26 01:20:08;;;;;;;5.83;4.87;;;;;;;;;;5030126;28;20526;-82
2023/08/26 01:22:36;;;;;;;5.60;4.90;;;;;;;;;;5028030;28;20471;-79
2023/08/26 01:25:05;;;;;;;5.30;4.80;;;;;;;;;;5026409;28;20451;-81
2023/08/26 01:27:33;;;;;;;7.20;5.13;;;;;;;;;;5027887;28;20487;-79
2023/08/26 01:30:01;;;;;;;7.10;4.73;;;;;;;;;;5026338;28;20470;-79
2023/08/26 01:32:31;;;;;;;6.20;5.57;;;;;;;;;;5030295;28;20439;-81
2023/08/26 01:34:59;;;;;;;5.83;4.77;;;;;;;;;;5025366;28;20458;-79
2023/08/26 01:37:27;;;;;;;6.73;5.20;;;;;;;;;;5028560;28;20470;-78
2023/08/26 01:39:56;;;;;;;9.40;5.23;;;;;;;;;;5026910;28;20796;-80
2023/08/26 01:42:26;;;;;;;6.60;4.80;;;;;;;;;;5032176;28;20470;-81
2023/08/26 01:44:54;;;;;;;7.20;5.00;;;;;;;;;;5025312;28;20768;-80
2023/08/26 01:47:21;;;;;;;6.40;5.53;;;;;;;;;;5029966;28;20459;-77
2023/08/26 01:49:49;;;;;;;9.80;6.33;;;;;;;;;;5027433;28;20479;-79
2023/08/26 01:52:16;;;;;;;7.27;6.10;;;;;;;;;;5026605;28;20502;-81
2023/08/26 01:54:48;;;;;;;7.63;5.93;;;;;;;;;;5026302;28;20449;-79
2023/08/26 01:57:17;;;;;;;7.17;5.00;;;;;;;;;;5026189;28;20447;-80
2023/08/26 01:59:49;;;;;;;7.40;5.90;;;;;;;;;;5027940;28;20438;-80
2023/08/26 02:02:17;;;;;;;8.00;6.60;;;;;;;;;;5028489;28;20459;-80
2023/08/26 02:04:45;;;;;;;7.70;6.10;;;;;;;;;;5027963;28;20569;-80
2023/08/26 02:07:12;;;;;;;9.10;7.23;;;;;;;;;;5027159;28;20854;-80
2023/08/26 02:09:40;;;;;;;7.30;5.83;;;;;;;;;;5028350;28;20463;-81
2023/08/26 02:12:08;;;;;;;7.00;6.27;;;;;;;;;;5027625;28;20895;-79
2023/08/26 02:14:35;;;;;;;10.47;8.03;;;;;;;;;;5029143;28;20464;-78
2023/08/26 02:17:04;;;;;;;8.20;6.90;;;;;;;;;;5028806;28;20767;-80
2023/08/26 02:19:32;;;;;;;8.43;6.33;;;;;;;;;;5027593;28;20462;-80
2023/08/26 02:22:00;;;;;;;8.60;6.40;;;;;;;;;;5027589;28;20489;-79
2023/08/26 02:24:29;;;;;;;8.63;7.57;;;;;;;;;;5028383;28;20464;-80
2023/08/26 02:26:56;;;;;;;7.33;6.53;;;;;;;;;;5031163;28;20474;-79
2023/08/26 02:29:24;;;;;;;10.00;7.80;;;;;;;;;;5026655;28;20443;-80
2023/08/26 02:31:51;;;;;;;10.37;7.77;;;;;;;;;;5026177;28;20799;-79
2023/08/26 02:34:20;;;;;;;9.40;7.73;;;;;;;;;;5023600;28;20735;-79
2023/08/26 02:36:48;;;;;;;10.33;7.23;;;;;;;;;;5025218;28;20442;-79
2023/08/26 02:39:16;;;;;;;8.97;8.07;;;;;;;;;;5025071;28;20467;-79
2023/08/26 02:41:43;;;;;;;13.93;8.97;;;;;;;;;;5026023;28;20458;-80
2023/08/26 02:44:14;;;;;;;13.20;8.80;;;;;;;;;;5027947;28;20478;-79
2023/08/26 02:46:41;;;;;;;8.97;8.07;;;;;;;;;;5026992;28;20915;-81
2023/08/26 02:49:09;;;;;;;13.80;8.70;;;;;;;;;;5028426;28;20451;-79
2023/08/26 02:51:40;;;;;;;12.20;8.90;;;;;;;;;;5026305;28;20460;-80
2023/08/26 02:54:08;;;;;;;12.93;9.43;;;;;;;;;;5025081;28;20454;-78
2023/08/26 02:56:38;;;;;;;13.90;11.10;;;;;;;;;;5025011;28;20456;-81
2023/08/26 02:59:07;;;;;;;12.87;10.87;;;;;;;;;;5026258;28;20458;-80
2023/08/26 03:01:34;;;;;;;11.57;10.27;;;;;;;;;;5026475;28;20513;-79
2023/08/26 03:04:02;;;;;;;14.30;10.67;;;;;;;;;;5023166;28;20601;-81
2023/08/26 03:06:30;;;;;;;14.20;10.67;;;;;;;;;;5025273;28;20530;-78
2023/08/26 03:08:59;;;;;;;12.23;9.67;;;;;;;;;;5023068;28;20451;-80
2023/08/26 03:11:26;;;;;;;12.80;10.30;;;;;;;;;;5027335;28;20443;-80
2023/08/26 03:13:54;;;;;;;11.80;10.13;;;;;;;;;;5025120;28;20525;-79
2023/08/26 03:16:22;;;;;;;12.80;10.70;;;;;;;;;;5026868;28;20487;-81
2023/08/26 03:18:49;;;;;;;14.27;10.87;;;;;;;;;;5025733;28;20459;-79
2023/08/26 03:21:17;;;;;;;16.33;11.03;;;;;;;;;;5027897;28;20466;-81
2023/08/26 03:23:44;;;;;;;12.10;10.20;;;;;;;;;;5028880;28;20447;-81
2023/08/26 03:26:15;;;;;;;13.47;10.17;;;;;;;;;;5027296;28;20562;-79
2023/08/26 03:28:43;;;;;;;12.47;9.73;;;;;;;;;;5028235;28;20490;-82
2023/08/26 03:31:12;;;;;;;14.30;9.87;;;;;;;;;;5026828;28;20586;-80
2023/08/26 03:33:40;;;;;;;13.60;10.07;;;;;;;;;;5027746;28;20439;-81
2023/08/26 03:36:08;;;;;;;15.47;11.07;;;;;;;;;;5025590;28;20470;-80
2023/08/26 03:38:36;;;;;;;16.00;12.50;;;;;;;;;;5026525;28;20451;-82
2023/08/26 03:41:04;;;;;;;17.80;10.90;;;;;;;;;;5025745;28;20470;-80
2023/08/26 03:43:33;;;;;;;18.00;12.67;;;;;;;;;;5027186;28;20560;-80
2023/08/26 03:46:03;;;;;;;15.40;12.00;;;;;;;;;;5026239;28;20459;-79
2023/08/26 03:48:30;;;;;;;16.27;12.30;;;;;;;;;;5027473;28;20538;-82
2023/08/26 03:50:58;;;;;;;20.53;13.57;;;;;;;;;;5024947;28;20470;-80
2023/08/26 03:53:27;;;;;;;19.33;13.10;;;;;;;;;;5025095;28;20472;-80
2023/08/26 03:55:54;;;;;;;18.20;14.17;;;;;;;;;;5025046;28;20447;-80
2023/08/26 03:58:22;;;;;;;18.27;14.33;;;;;;;;;;5025101;28;20463;-79
2023/08/26 04:00:51;;;;;;;19.00;13.93;;;;;;;;;;5026223;28;20910;-80
2023/08/26 04:03:18;;;;;;;19.27;14.87;;;;;;;;;;5024965;28;20494;-81
2023/08/26 04:05:45;;;;;;;25.70;15.73;;;;;;;;;;5026826;28;20495;-78
2023/08/26 04:08:13;;;;;;;19.97;15.70;;;;;;;;;;5027480;28;20804;-79
2023/08/26 04:10:40;;;;;;;21.20;16.53;;;;;;;;;;5026772;28;20463;-79
2023/08/26 04:13:19;;;;;;;22.10;16.67;;;;;;;;;;5026075;28;20459;-79
2023/08/26 04:15:47;;;;;;;25.60;17.57;;;;;;;;;;5025658;28;20489;-82
2023/08/26 04:18:16;;;;;;;26.10;18.30;;;;;;;;;;5025805;28;20456;-80
2023/08/26 04:20:44;;;;;;;27.40;19.17;;;;;;;;;;5027662;28;20483;-80
2023/08/26 04:23:11;;;;;;;27.10;19.33;;;;;;;;;;5022068;28;20554;-80
2023/08/26 04:25:39;;;;;;;27.00;20.90;;;;;;;;;;5026635;28;20462;-79
2023/08/26 04:28:06;;;;;;;30.10;21.50;;;;;;;;;;5021977;28;20558;-79
2023/08/26 04:30:34;;;;;;;27.67;19.90;;;;;;;;;;5027523;28;20458;-79
2023/08/26 04:33:04;;;;;;;30.00;21.53;;;;;;;;;;5027813;28;20478;-80
2023/08/26 04:35:32;;;;;;;28.93;20.27;;;;;;;;;;5027673;28;20501;-80
2023/08/26 04:38:00;;;;;;;28.53;21.60;;;;;;;;;;5029042;28;20509;-79
2023/08/26 04:40:28;;;;;;;31.93;21.27;;;;;;;;;;5027490;28;20459;-80
2023/08/26 04:42:55;;;;;;;32.33;20.97;;;;;;;;;;5026979;28;20491;-81
2023/08/26 04:45:23;;;;;;;27.30;19.87;;;;;;;;;;5027697;28;20462;-80
2023/08/26 04:47:51;;;;;;;27.50;19.43;;;;;;;;;;5027683;28;20491;-81
2023/08/26 04:50:21;;;;;;;31.57;21.03;;;;;;;;;;5030906;28;20454;-79
2023/08/26 04:52:51;;;;;;;27.03;19.93;;;;;;;;;;5028961;28;20486;-79
2023/08/26 04:55:18;;;;;;;30.00;21.40;;;;;;;;;;5029535;28;20497;-79
2023/08/26 04:57:52;;;;;;;27.73;20.07;;;;;;;;;;5028917;28;20451;-79
2023/08/26 05:00:20;;;;;;;28.90;20.13;;;;;;;;;;5032066;28;20866;-78
2023/08/26 05:02:47;;;;;;;29.50;19.53;;;;;;;;;;5027394;28;20962;-79
2023/08/26 05:05:15;;;;;;;30.87;20.53;;;;;;;;;;5029999;28;20523;-82
2023/08/26 05:07:42;;;;;;;24.47;19.63;;;;;;;;;;5028127;28;20505;-80
2023/08/26 05:10:11;;;;;;;29.27;20.90;;;;;;;;;;5030425;28;20498;-81
2023/08/26 05:12:39;;;;;;;27.60;20.53;;;;;;;;;;5027355;28;20482;-80
2023/08/26 05:15:07;;;;;;;24.83;19.70;;;;;;;;;;5027367;28;20474;-80
2023/08/26 05:17:34;;;;;;;29.73;19.40;;;;;;;;;;5030946;28;20451;-80
2023/08/26 05:20:06;;;;;;;28.37;20.60;;;;;;;;;;5027062;28;20566;-80
2023/08/26 05:22:33;;;;;;;24.27;19.47;;;;;;;;;;5032697;28;20451;-80
2023/08/26 05:25:01;;;;;;;25.10;19.53;;;;;;;;;;5028696;28;20448;-79
2023/08/26 05:27:30;;;;;;;25.90;19.20;;;;;;;;;;5032427;28;20887;-81
2023/08/26 05:29:57;;;;;;;26.73;20.30;;;;;;;;;;5029934;28;20487;-80
2023/08/26 05:32:26;;;;;;;22.80;18.67;;;;;;;;;;5032503;28;20525;-79
2023/08/26 05:34:53;;;;;;;24.07;18.77;;;;;;;;;;5029207;28;20856;-78
2023/08/26 05:37:21;;;;;;;25.40;18.73;;;;;;;;;;5029426;28;20448;-81
2023/08/26 05:39:49;;;;;;;24.07;19.17;;;;;;;;;;5027765;28;20459;-81
2023/08/26 05:42:16;;;;;;;25.03;18.27;;;;;;;;;;5028337;28;20474;-79
2023/08/26 05:44:45;;;;;;;22.70;18.40;;;;;;;;;;5027928;28;20463;-80
2023/08/26 05:47:12;;;;;;;25.00;19.03;;;;;;;;;;5027714;28;20455;-80
2023/08/26 05:49:40;;;;;;;25.10;19.20;;;;;;;;;;5027066;28;20447;-81
2023/08/26 05:52:08;;;;;;;25.87;19.40;;;;;;;;;;5025736;28;20865;-79
2023/08/26 05:54:35;;;;;;;20.17;16.57;;;;;;;;;;5026313;28;20455;-79
2023/08/26 05:57:02;;;;;;;23.50;18.30;;;;;;;;;;5028041;28;20451;-78
2023/08/26 05:59:30;;;;;;;24.57;18.30;;;;;;;;;;5028406;28;20623;-81
2023/08/26 06:01:59;;;;;;;30.80;19.17;;;;;;;;;;5024988;28;20514;-79
2023/08/26 06:04:27;;;;;;;26.13;19.50;;;;;;;;;;5032046;28;20478;-79
2023/08/26 06:06:57;;;;;;;28.10;19.63;;;;;;;;;;5025871;28;20561;-81
2023/08/26 06:09:24;;;;;;;26.17;19.57;;;;;;;;;;5026851;28;20557;-82
2023/08/26 06:11:52;;;;;;;24.53;18.63;;;;;;;;;;5019187;28;20538;-79
2023/08/26 06:14:19;;;;;;;24.37;19.53;;;;;;;;;;5024208;28;20471;-81
2023/08/26 06:16:48;;;;;;;29.40;18.60;;;;;;;;;;5026705;28;20447;-78
2023/08/26 06:19:16;;;;;;;24.10;17.73;;;;;;;;;;5028399;28;20482;-80
2023/08/26 06:21:44;;;;;;;24.53;18.63;;;;;;;;;;5025783;28;20791;-80
2023/08/26 06:24:12;;;;;;;28.20;18.53;;;;;;;;;;5021273;28;20457;-81
2023/08/26 06:26:39;;;;;;;20.80;17.07;;;;;;;;;;5023393;28;20546;-81
2023/08/26 06:29:06;;;;;;;23.07;17.53;;;;;;;;;;5020088;28;20523;-80
2023/08/26 06:31:34;;;;;;;22.33;17.10;;;;;;;;;;5044162;28;20545;-79
2023/08/26 06:34:02;;;;;;;33.47;19.27;;;;;;;;;;5025990;28;20727;-79
2023/08/26 06:36:31;;;;;;;21.53;17.90;;;;;;;;;;5024152;28;20696;-78
2023/08/26 06:38:59;;;;;;;24.60;18.70;;;;;;;;;;5023179;28;20451;-79
2023/08/26 06:41:26;;;;;;;23.53;17.67;;;;;;;;;;5022163;28;20935;-79
2023/08/26 06:43:54;;;;;;;22.63;18.37;;;;;;;;;;5025584;28;20489;-80
2023/08/26 06:46:21;;;;;;;23.53;17.70;;;;;;;;;;5026440;28;20537;-79
2023/08/26 06:48:49;;;;;;;22.40;16.97;;;;;;;;;;5024173;28;20467;-79
2023/08/26 06:51:18;;;;;;;23.83;16.57;;;;;;;;;;5020634;28;20482;-79
2023/08/26 06:53:47;;;;;;;21.10;16.53;;;;;;;;;;5025613;28;20573;-79
2023/08/26 06:56:17;;;;;;;19.67;16.00;;;;;;;;;;5013315;28;20472;-80
2023/08/26 06:58:44;;;;;;;17.90;13.90;;;;;;;;;;5011999;28;20460;-81
2023/08/26 07:01:12;;;;;;;15.27;12.73;;;;;;;;;;5004541;28;20452;-80
2023/08/26 07:03:39;;;;;;;16.83;13.33;;;;;;;;;;5020385;28;20489;-78
2023/08/26 07:06:07;;;;;;;15.17;12.77;;;;;;;;;;5035403;28;20735;-80
2023/08/26 07:08:35;;;;;;;15.27;12.30;;;;;;;;;;5031979;28;20490;-78
2023/08/26 07:11:04;;;;;;;15.03;11.80;;;;;;;;;;5031324;28;20447;-80
2023/08/26 07:13:32;;;;;;;13.43;11.80;;;;;;;;;;5029080;28;20545;-79
2023/08/26 07:15:59;;;;;;;15.13;12.00;;;;;;;;;;5025694;28;20880;-80
2023/08/26 07:18:27;;;;;;;14.40;11.00;;;;;;;;;;5034583;28;20688;-79
2023/08/26 07:20:54;;;;;;;16.13;11.50;;;;;;;;;;5040432;28;20598;-79
2023/08/26 07:23:23;;;;;;;16.23;11.77;;;;;;;;;;5022276;28;20857;-79
2023/08/26 07:25:51;;;;;;;14.17;10.97;;;;;;;;;;5027103;28;20462;-79
2023/08/26 07:28:26;;;;;;;15.73;11.27;;;;;;;;;;5002734;28;20982;-78
2023/08/26 07:30:56;;;;;;;13.60;10.60;;;;;;;;;;5016822;28;20455;-81
2023/08/26 07:33:23;;;;;;;13.37;11.03;;;;;;;;;;5023928;28;20825;-80
2023/08/26 07:35:51;;;;;;;12.80;11.20;;;;;;;;;;5024608;28;20520;-81
2023/08/26 07:38:19;;;;;;;12.00;10.17;;;;;;;;;;5026982;28;20440;-80
2023/08/26 07:40:47;;;;;;;11.70;10.20;;;;;;;;;;5023460;28;20498;-81
2023/08/26 07:43:14;;;;;;;13.53;10.70;;;;;;;;;;5021383;28;20474;-80
2023/08/26 07:45:43;;;;;;;14.00;10.10;;;;;;;;;;5027169;28;20521;-80
2023/08/26 07:48:11;;;;;;;13.27;9.23;;;;;;;;;;5025605;28;20561;-80
2023/08/26 07:50:38;;;;;;;13.40;9.87;;;;;;;;;;5020973;28;20482;-80
2023/08/26 07:53:06;;;;;;;13.27;8.27;;;;;;;;;;5018731;28;20490;-81
2023/08/26 07:55:36;;;;;;;13.43;9.93;;;;;;;;;;5023039;28;20674;-81
2023/08/26 07:58:08;;;;;;;9.93;8.13;;;;;;;;;;4986866;28;20459;-79
2023/08/26 08:00:36;;;;;;;11.97;8.70;;;;;;;;;;5023228;28;20488;-79
2023/08/26 08:03:05;;;;;;;10.30;8.70;;;;;;;;;;5016901;28;20502;-79
2023/08/26 08:05:33;;;;;;;11.83;8.47;;;;;;;;;;5031699;28;20553;-81
2023/08/26 08:08:00;;;;;;;14.00;9.37;;;;;;;;;;5025496;28;20511;-82
2023/08/26 08:10:32;;;;;;;11.90;8.80;;;;;;;;;;5027319;28;20467;-79
2023/08/26 08:12:59;;;;;;;12.10;9.10;;;;;;;;;;5024940;28;20539;-78
2023/08/26 08:15:27;;;;;;;10.07;9.00;;;;;;;;;;5024550;28;20812;-81
2023/08/26 08:18:04;;;;;;;12.33;10.03;;;;;;;;;;5026433;28;20454;-80
2023/08/26 08:20:33;;;;;;;17.20;11.53;;;;;;;;;;5007967;28;20472;-80
2023/08/26 08:23:01;;;;;;;10.67;9.37;;;;;;;;;;5026762;28;20458;-81
2023/08/26 08:25:29;;;;;;;12.00;8.80;;;;;;;;;;5025319;28;20473;-80
2023/08/26 08:27:56;;;;;;;11.80;9.67;;;;;;;;;;5027267;28;20973;-80
2023/08/26 08:30:24;;;;;;;13.70;9.60;;;;;;;;;;5028033;28;20537;-80
2023/08/26 08:32:51;;;;;;;10.00;8.73;;;;;;;;;;5025353;28;20467;-80
2023/08/26 08:35:19;;;;;;;12.37;9.57;;;;;;;;;;5028268;28;20598;-83
2023/08/26 08:37:48;;;;;;;12.60;9.50;;;;;;;;;;5027535;28;20462;-79
2023/08/26 08:40:19;;;;;;;12.53;8.90;;;;;;;;;;5030699;28;20463;-80
2023/08/26 08:42:48;;;;;;;11.90;8.73;;;;;;;;;;5027719;28;20455;-82
2023/08/26 08:45:21;;;;;;;13.07;11.17;;;;;;;;;;5031119;28;20459;-81
2023/08/26 08:47:49;;;;;;;11.70;9.03;;;;;;;;;;5032587;28;20467;-82
2023/08/26 08:50:17;;;;;;;12.77;11.00;;;;;;;;;;5028938;28;20525;-81
2023/08/26 08:52:46;;;;;;;12.90;9.13;;;;;;;;;;5029198;28;20462;-82
2023/08/26 08:55:15;;;;;;;21.40;12.00;;;;;;;;;;5033493;28;20744;-79
2023/08/26 08:57:45;;;;;;;11.30;5.40;;;;;;;;;;5032339;28;20439;-80
2023/08/26 09:00:16;;;;;;;11.20;8.30;;;;;;;;;;5029062;28;20447;-82
2023/08/26 09:02:48;;;;;;;12.10;8.80;;;;;;;;;;5026302;28;20537;-81
2023/08/26 09:05:16;;;;;;;9.10;8.10;;;;;;;;;;5030287;28;20509;-80
2023/08/26 09:07:45;;;;;;;9.57;8.37;;;;;;;;;;5029489;28;20458;-80
2023/08/26 09:10:17;;;;;;;12.17;10.77;;;;;;;;;;5030169;28;20910;-78
2023/08/26 09:12:45;;;;;;;12.17;10.00;;;;;;;;;;5031064;28;20452;-78
2023/08/26 09:15:26;;;;;;;13.73;12.20;;;;;;;;;;5032424;28;20447;-79
2023/08/26 09:17:58;;;;;;;10.63;9.23;;;;;;;;;;5027526;28;20668;-79
2023/08/26 09:20:28;;;;;;;12.30;9.60;;;;;;;;;;5029083;28;20519;-79
2023/08/26 09:23:05;;;;;;;12.50;9.57;;;;;;;;;;5037218;28;20481;-80
2023/08/26 09:25:34;;;;;;;12.83;9.73;;;;;;;;;;5044828;28;20489;-79
2023/08/26 09:28:03;;;;;;;11.33;8.17;;;;;;;;;;5039499;28;20469;-79
2023/08/26 09:30:31;;;;;;;9.97;8.40;;;;;;;;;;5025485;28;20465;-79
2023/08/26 09:32:58;;;;;;;11.17;8.93;;;;;;;;;;5019436;28;20459;-79
2023/08/26 09:35:26;;;;;;;10.57;8.30;;;;;;;;;;5025884;28;20459;-80
2023/08/26 09:38:03;;;;;;;11.90;8.27;;;;;;;;;;5025236;28;20506;-81
2023/08/26 09:40:32;;;;;;;8.63;7.07;;;;;;;;;;5028172;28;20459;-80
2023/08/26 09:43:05;;;;;;;14.87;9.60;;;;;;;;;;5029390;28;20498;-79
2023/08/26 09:45:38;;;;;;;9.07;7.50;;;;;;;;;;5028998;28;20888;-79
2023/08/26 09:48:07;;;;;;;7.87;6.00;;;;;;;;;;5023426;28;20486;-79
2023/08/26 09:50:35;;;;;;;10.73;7.10;;;;;;;;;;5026449;28;20474;-78
2023/08/26 09:53:06;;;;;;;7.43;6.13;;;;;;;;;;5026880;28;20522;-79
2023/08/26 09:55:34;;;;;;;6.87;5.20;;;;;;;;;;5015227;28;20460;-80
2023/08/26 09:58:04;;;;;;;8.67;6.20;;;;;;;;;;5005842;28;20522;-79
2023/08/26 10:00:33;;;;;;;6.90;5.60;;;;;;;;;;5009153;28;20464;-80
2023/08/26 10:03:02;;;;;;;6.83;5.30;;;;;;;;;;5027394;28;20877;-80
2023/08/26 10:05:30;;;;;;;6.27;5.40;;;;;;;;;;5027329;28;20533;-80
2023/08/26 10:08:00;;;;;;;5.37;4.70;;;;;;;;;;5028996;28;20573;-78
2023/08/26 10:10:37;;;;;;;8.50;4.90;;;;;;;;;;5010836;28;20487;-80
2023/08/26 10:13:08;;;;;;;7.73;3.83;;;;;;;;;;5010609;28;20443;-79
2023/08/26 10:15:36;;;;;;;5.53;3.50;;;;;;;;;;5030797;28;20462;-79
2023/08/26 10:18:10;;;;;;;5.60;3.30;;;;;;;;;;5026166;28;20606;-80
2023/08/26 10:20:40;;;;;;;6.10;3.33;;;;;;;;;;5027331;28;20451;-79
2023/08/26 10:23:11;;;;;;;6.10;2.80;;;;;;;;;;5020808;28;20526;-80
2023/08/26 10:26:05;;;;;;;5.90;2.90;;;;;;;;;;5022793;28;20460;-80
2023/08/26 10:28:39;;;;;;;5.40;3.30;;;;;;;;;;5023969;28;20464;-80
2023/08/26 10:31:08;;;;;;;6.30;3.07;;;;;;;;;;5029082;28;20468;-80
2023/08/26 10:33:59;;;;;;;4.97;3.17;;;;;;;;;;5022863;28;20494;-81
2023/08/26 10:36:27;;;;;;;4.50;3.03;;;;;;;;;;5022113;28;20459;-78
2023/08/26 10:38:57;;;;;;;3.63;2.83;;;;;;;;;;5021975;28;20460;-78
2023/08/26 10:41:26;;;;;;;4.03;2.17;;;;;;;;;;5025948;28;20503;-79
2023/08/26 10:44:01;;;;;;;4.23;2.60;;;;;;;;;;5027407;28;20459;-79
2023/08/26 10:46:37;;;;;;;4.17;2.37;;;;;;;;;;5024577;28;20471;-80
2023/08/26 10:49:09;;;;;;;4.50;1.93;;;;;;;;;;5023463;28;20513;-80
2023/08/26 10:51:40;;;;;;;4.40;1.57;;;;;;;;;;5025804;28;20463;-80
2023/08/26 11:00:12;;;;;;;4.77;1.93;;;;;;;;;;5015183;28;20526;-80
2023/08/26 11:02:47;;;;;;;4.13;2.90;;;;;;;;;;5022722;28;20459;-80
2023/08/26 11:05:22;;;;;;;4.80;2.07;;;;;;;;;;5028821;28;20457;-78
2023/08/26 11:07:56;;;;;;;4.37;2.40;;;;;;;;;;5024007;28;20443;-80
2023/08/26 11:13:28;;;;;;;3.97;2.67;;;;;;;;;;5024939;28;20678;-80
2023/08/26 11:16:07;;;;;;;6.23;1.60;;;;;;;;;;5026084;28;20632;-80
2023/08/26 11:18:41;;;;;;;4.40;1.80;;;;;;;;;;5015105;28;20455;-79
2023/08/26 11:24:02;;;;;;;5.43;2.83;;;;;;;;;;5013505;28;20505;-79
2023/08/26 11:30:21;;;;;;;5.03;2.77;;;;;;;;;;5015433;28;20845;-81
2023/08/26 11:47:00;;;;;;;7.38;4.68;;;;;;;;;;4938851;27;6760171;-78
2023/08/26 11:55:10;;;;;;;7.37;5.30;;;;;;;;;;5154976;27;20468;-79
2023/08/26 11:57:39;;;;;;;6.00;4.80;;;;;;;;;;5141572;28;20196;-79
2023/08/26 12:00:31;;;;;;;7.10;5.40;;;;;;;;;;5139024;28;20458;-79
2023/08/26 12:03:07;;;;;;;8.43;6.00;;;;;;;;;;5131299;27;20458;-79
2023/08/26 12:05:45;;;;;;;7.43;5.50;;;;;;;;;;5143237;27;20517;-79
2023/08/26 12:08:20;;;;;;;9.40;5.77;;;;;;;;;;5150542;27;20461;-77
2023/08/26 12:11:18;;;;;;;;;;;;;;;;;;;;;
2023/08/26 12:13:48;;;;;;;6.40;4.20;;;;;;;;;;5140169;27;20457;-78
2023/08/26 12:16:16;;;;;;;7.07;6.30;;;;;;;;;;5156531;27;20884;-80
2023/08/26 12:18:45;;;;;;;7.63;5.20;;;;;;;;;;5143217;27;20458;-80
2023/08/26 12:21:13;;;;;;;5.83;5.10;;;;;;;;;;5141672;27;20477;-79
2023/08/26 12:23:41;;;;;;;7.07;4.37;;;;;;;;;;5141445;27;21135;-80
2023/08/26 12:26:17;;;;;;;5.33;4.10;;;;;;;;;;5141358;27;20483;-79
2023/08/26 12:28:44;;;;;;;5.17;3.30;;;;;;;;;;5125726;28;20490;-80
2023/08/26 12:31:13;;;;;;;7.63;3.83;;;;;;;;;;5112711;28;20459;-78
2023/08/26 12:33:41;;;;;;;6.50;4.10;;;;;;;;;;5121102;28;20528;-79
2023/08/26 12:36:08;;;;;;;6.90;3.40;;;;;;;;;;5119174;28;20487;-78
2023/08/26 12:38:36;;;;;;;6.87;3.67;;;;;;;;;;5119269;28;20458;-79
2023/08/26 12:41:05;;;;;;;6.70;4.83;;;;;;;;;;5120362;28;20466;-78
2023/08/26 12:43:33;;;;;;;7.43;4.17;;;;;;;;;;5121795;28;20473;-78
2023/08/26 12:46:03;;;;;;;9.63;4.07;;;;;;;;;;5123217;28;20463;-77
2023/08/26 12:48:34;;;;;;;6.10;3.83;;;;;;;;;;5103899;28;20479;-79
2023/08/26 12:51:03;;;;;;;7.83;4.13;;;;;;;;;;5091710;28;20465;-79
2023/08/26 12:53:31;;;;;;;7.50;4.27;;;;;;;;;;5087473;28;20448;-79
2023/08/26 12:55:59;;;;;;;7.00;4.60;;;;;;;;;;5104431;28;20495;-79
2023/08/26 12:58:27;;;;;;;8.07;4.30;;;;;;;;;;5097149;28;20461;-77
2023/08/26 13:00:55;;;;;;;7.43;3.90;;;;;;;;;;5085742;28;20453;-78
2023/08/26 13:03:23;;;;;;;8.33;3.67;;;;;;;;;;5083140;28;20468;-79
2023/08/26 13:05:55;;;;;;;10.47;3.87;;;;;;;;;;5083963;28;20479;-78
2023/08/26 13:08:30;;;;;;;6.77;4.27;;;;;;;;;;5084068;28;20452;-79
2023/08/26 13:10:59;;;;;;;7.40;3.90;;;;;;;;;;5088019;28;20532;-80
2023/08/26 13:13:27;;;;;;;6.10;4.47;;;;;;;;;;5085406;28;20452;-80
2023/08/26 13:16:01;;;;;;;5.47;3.27;;;;;;;;;;5090941;28;20484;-78
2023/08/26 13:18:33;;;;;;;6.67;3.20;;;;;;;;;;5083744;28;20516;-79
2023/08/26 13:21:03;;;;;;;5.87;3.50;;;;;;;;;;5084368;28;20461;-80
2023/08/26 13:23:33;;;;;;;10.57;3.73;;;;;;;;;;5086446;28;20474;-81
2023/08/26 13:26:00;;;;;;;4.30;3.00;;;;;;;;;;5084310;28;20460;-79
2023/08/26 13:28:28;;;;;;;4.83;3.07;;;;;;;;;;5086849;28;20510;-80
2023/08/26 13:30:56;;;;;;;4.23;3.10;;;;;;;;;;5095116;28;20493;-79
2023/08/26 13:33:24;;;;;;;7.83;3.33;;;;;;;;;;5087422;28;20517;-80
2023/08/26 13:35:51;;;;;;;10.63;4.67;;;;;;;;;;5083256;28;20906;-79
2023/08/26 13:38:21;;;;;;;4.73;2.40;;;;;;;;;;5084217;28;20460;-79
2023/08/26 13:40:48;;;;;;;6.87;3.00;;;;;;;;;;5093613;28;20461;-78
2023/08/26 13:43:15;;;;;;;6.03;3.47;;;;;;;;;;5084715;28;20463;-78
2023/08/26 13:45:43;;;;;;;9.37;4.37;;;;;;;;;;5082678;28;20880;-79
2023/08/26 13:48:11;;;;;;;4.20;2.73;;;;;;;;;;5083226;28;20472;-78
2023/08/26 13:50:39;;;;;;;6.50;3.43;;;;;;;;;;5087374;28;20461;-79
2023/08/26 13:53:08;;;;;;;7.30;3.03;;;;;;;;;;5076818;28;20931;-76
2023/08/26 13:55:38;;;;;;;3.80;2.80;;;;;;;;;;5086087;28;20499;-78
2023/08/26 13:58:08;;;;;;;5.80;2.20;;;;;;;;;;5117595;28;20498;-78
2023/08/26 14:00:36;;;;;;;5.57;1.97;;;;;;;;;;5107573;28;20454;-78
2023/08/26 14:03:04;;;;;;;5.63;2.17;;;;;;;;;;5103359;28;20520;-78
2023/08/26 14:05:31;;;;;;;3.87;1.90;;;;;;;;;;5100893;28;20443;-77
2023/08/26 14:07:59;;;;;;;11.20;2.53;;;;;;;;;;5101264;28;20493;-78
2023/08/26 14:10:28;;;;;;;6.07;2.03;;;;;;;;;;5101348;28;20909;-79
2023/08/26 14:12:57;;;;;;;6.47;1.87;;;;;;;;;;5101354;28;20483;-78
2023/08/26 14:15:25;;;;;;;3.70;1.83;;;;;;;;;;5103340;28;20486;-79
2023/08/26 14:17:53;;;;;;;4.17;2.20;;;;;;;;;;5102725;28;20521;-79
2023/08/26 14:20:21;;;;;;;6.60;2.03;;;;;;;;;;5105392;28;20448;-77
2023/08/26 14:22:48;;;;;;;3.43;1.83;;;;;;;;;;5104975;28;20480;-80
2023/08/26 14:25:16;;;;;;;6.10;2.07;;;;;;;;;;5102783;28;20470;-79
2023/08/26 14:27:43;;;;;;;4.40;1.80;;;;;;;;;;5098053;28;20529;-78
2023/08/26 14:30:16;;;;;;;4.27;1.70;;;;;;;;;;5104387;28;20486;-78
2023/08/26 14:32:43;;;;;;;5.00;2.13;;;;;;;;;;5102241;28;20447;-79
2023/08/26 14:35:11;;;;;;;6.60;2.40;;;;;;;;;;5101455;28;20522;-80
2023/08/26 14:37:39;;;;;;;3.83;2.20;;;;;;;;;;5103266;28;20483;-78
2023/08/26 14:40:08;;;;;;;3.57;1.70;;;;;;;;;;5102501;28;20475;-77
2023/08/26 14:42:36;;;;;;;6.40;2.00;;;;;;;;;;5102285;28;20462;-78
2023/08/26 14:45:10;;;;;;;4.00;1.50;;;;;;;;;;5101612;28;20450;-79
2023/08/26 14:47:45;;;;;;;5.20;1.73;;;;;;;;;;5102793;28;20480;-79
2023/08/26 14:50:19;;;;;;;4.40;1.77;;;;;;;;;;5103174;28;20459;-81
2023/08/26 14:52:54;;;;;;;6.10;2.00;;;;;;;;;;5101229;28;20451;-78
2023/08/26 14:55:23;;;;;;;3.30;1.60;;;;;;;;;;5104423;28;20529;-81
2023/08/26 14:57:51;;;;;;;6.43;2.07;;;;;;;;;;5103011;28;20668;-80
2023/08/26 15:00:18;;;;;;;4.73;1.83;;;;;;;;;;5100513;28;20527;-81
2023/08/26 15:02:47;;;;;;;4.93;1.37;;;;;;;;;;5101308;28;20501;-80
2023/08/26 15:05:15;;;;;;;2.40;1.10;;;;;;;;;;5100760;28;20447;-80
2023/08/26 15:07:42;;;;;;;2.70;1.50;;;;;;;;;;5101777;28;21145;-79
2023/08/26 15:10:11;;;;;;;5.00;1.67;;;;;;;;;;5099611;28;20487;-79
2023/08/26 15:12:38;;;;;;;6.67;1.73;;;;;;;;;;5100906;28;20452;-79
2023/08/26 15:15:06;;;;;;;3.30;1.30;;;;;;;;;;5102897;28;20490;-78
2023/08/26 15:17:34;;;;;;;13.13;2.27;;;;;;;;;;5100663;28;20453;-83
2023/08/26 15:20:15;;;;;;;4.03;1.40;;;;;;;;;;5107471;28;20466;-81